createdAt,value
2019-03-17T00:02:00.785Z,1.10
2019-03-17T00:04:31.609Z,1.27
2019-03-17T00:06:55.704Z,1.27
2019-03-17T00:09:22.236Z,1.60
2019-03-17T00:11:48.671Z,1.23
2019-03-17T00:14:15.413Z,0.90
2019-03-17T00:16:42.048Z,1.33
2019-03-17T00:19:08.584Z,1.30
2019-03-17T00:21:35.018Z,1.30
2019-03-17T00:24:01.451Z,1.20
2019-03-17T00:26:27.986Z,1.30
2019-03-17T00:28:54.522Z,1.30
2019-03-17T00:31:24.154Z,1.10
2019-03-17T00:33:49.289Z,1.20
2019-03-17T00:36:16.179Z,1.40
2019-03-17T00:38:42.714Z,1.17
2019-03-17T00:41:09.130Z,1.30
2019-03-17T00:43:35.582Z,1.20
2019-03-17T00:46:02.425Z,1.60
2019-03-17T00:48:28.858Z,1.30
2019-03-17T00:50:55.296Z,1.03
2019-03-17T00:53:21.828Z,1.10
2019-03-17T00:55:48.468Z,1.27
2019-03-17T00:58:14.907Z,1.10
2019-03-17T01:00:41.643Z,1.20
2019-03-17T01:03:08.080Z,1.53
2019-03-17T01:05:35.980Z,1.40
2019-03-17T01:08:03.648Z,1.40
2019-03-17T01:10:31.096Z,1.43
2019-03-17T01:12:58.860Z,1.30
2019-03-17T01:15:26.746Z,1.13
2019-03-17T01:17:53.331Z,1.00
2019-03-17T01:20:19.903Z,1.10
2019-03-17T01:22:46.402Z,1.40
2019-03-17T01:25:12.942Z,1.00
2019-03-17T01:27:39.372Z,1.10
2019-03-17T01:30:08.893Z,1.67
2019-03-17T01:32:35.517Z,1.03
2019-03-17T01:35:09.276Z,1.10
2019-03-17T01:37:32.483Z,1.30
2019-03-17T01:39:58.997Z,1.50
2019-03-17T01:42:25.659Z,1.50
2019-03-17T01:44:52.193Z,1.13
2019-03-17T01:47:18.728Z,1.43
2019-03-17T01:49:45.163Z,1.27
2019-03-17T01:52:11.603Z,1.20
2019-03-17T01:54:39.869Z,1.00
2019-03-17T01:57:06.405Z,1.00
2019-03-17T01:59:32.839Z,0.90
2019-03-17T02:01:59.373Z,1.13
2019-03-17T02:04:26.015Z,1.37
2019-03-17T02:06:52.547Z,1.30
2019-03-17T02:09:18.981Z,1.10
2019-03-17T02:11:45.414Z,0.90
2019-03-17T02:14:12.057Z,1.03
2019-03-17T02:16:38.693Z,0.93
2019-03-17T02:19:05.228Z,1.10
2019-03-17T02:21:31.661Z,1.27
2019-03-17T02:23:58.095Z,1.10
2019-03-17T02:26:24.631Z,1.17
2019-03-17T02:28:51.063Z,1.20
2019-03-17T02:31:17.599Z,1.07
2019-03-17T02:33:44.036Z,1.10
2019-03-17T02:36:10.585Z,1.50
2019-03-17T02:38:37.003Z,0.90
2019-03-17T02:41:03.433Z,1.07
2019-03-17T02:43:29.870Z,1.00
2019-03-17T02:45:56.407Z,1.10
2019-03-17T02:48:22.840Z,1.37
2019-03-17T02:50:49.259Z,1.30
2019-03-17T02:53:15.708Z,1.37
2019-03-17T02:55:42.654Z,1.10
2019-03-17T02:58:09.088Z,1.03
2019-03-17T03:00:35.522Z,1.57
2019-03-17T03:03:01.953Z,1.27
2019-03-17T03:05:28.489Z,1.10
2019-03-17T03:07:54.926Z,1.10
2019-03-17T03:10:21.358Z,0.90
2019-03-17T03:12:47.896Z,0.97
2019-03-17T03:15:14.536Z,1.07
2019-03-17T03:17:41.067Z,0.97
2019-03-17T03:20:08.420Z,1.10
2019-03-17T03:22:34.854Z,0.97
2019-03-17T03:25:01.391Z,1.00
2019-03-17T03:27:27.828Z,0.97
2019-03-17T03:29:54.364Z,0.97
2019-03-17T03:32:20.908Z,1.20
2019-03-17T03:34:47.432Z,1.17
2019-03-17T03:37:14.079Z,0.80
2019-03-17T03:39:40.503Z,1.00
2019-03-17T03:42:06.936Z,0.80
2019-03-17T03:44:33.475Z,0.97
2019-03-17T03:46:59.908Z,0.83
2019-03-17T03:49:26.446Z,1.00
2019-03-17T03:51:52.881Z,0.70
2019-03-17T03:54:19.311Z,0.70
2019-03-17T03:56:45.951Z,0.80
2019-03-17T03:59:12.394Z,1.13
2019-03-17T04:01:38.815Z,0.77
2019-03-17T04:04:05.252Z,0.87
2019-03-17T04:06:31.784Z,0.93
2019-03-17T04:08:58.627Z,0.90
2019-03-17T04:11:25.063Z,0.90
2019-03-17T04:13:51.497Z,1.13
2019-03-17T04:16:18.138Z,1.20
2019-03-17T04:18:44.672Z,0.70
2019-03-17T04:21:11.111Z,0.80
2019-03-17T04:23:37.543Z,0.70
2019-03-17T04:26:04.073Z,0.70
2019-03-17T04:28:30.507Z,0.63
2019-03-17T04:30:56.940Z,0.77
2019-03-17T04:33:23.375Z,0.60
2019-03-17T04:35:49.911Z,0.80
2019-03-17T04:38:16.652Z,0.80
2019-03-17T04:40:43.598Z,0.80
2019-03-17T04:43:10.027Z,1.23
2019-03-17T04:45:36.562Z,0.70
2019-03-17T04:48:02.997Z,1.00
2019-03-17T04:50:29.440Z,0.63
2019-03-17T04:52:55.863Z,0.67
2019-03-17T04:55:22.404Z,0.83
2019-03-17T04:57:49.344Z,0.80
2019-03-17T05:00:15.777Z,0.50
2019-03-17T05:02:42.220Z,0.70
2019-03-17T05:05:08.748Z,0.73
2019-03-17T05:07:35.181Z,0.73
2019-03-17T05:10:02.638Z,0.60
2019-03-17T05:12:29.211Z,0.70
2019-03-17T05:14:55.920Z,0.87
2019-03-17T05:17:22.451Z,0.87
2019-03-17T05:19:48.885Z,0.97
2019-03-17T05:22:15.320Z,0.80
2019-03-17T05:24:41.854Z,0.80
2019-03-17T05:27:08.287Z,0.70
2019-03-17T05:29:34.720Z,0.80
2019-03-17T05:32:01.157Z,0.80
2019-03-17T05:34:27.690Z,0.83
2019-03-17T05:37:05.597Z,0.57
2019-03-17T05:39:24.348Z,0.80
2019-03-17T05:41:50.883Z,0.90
2019-03-17T05:44:17.318Z,0.60
2019-03-17T05:46:43.854Z,0.70
2019-03-17T05:49:10.287Z,0.57
2019-03-17T05:51:37.032Z,0.80
2019-03-17T05:54:03.557Z,0.60
2019-03-17T05:56:30.097Z,0.70
2019-03-17T05:58:56.634Z,0.90
2019-03-17T06:01:23.068Z,0.90
2019-03-17T06:03:49.601Z,1.00
2019-03-17T06:06:16.139Z,0.67
2019-03-17T06:08:44.414Z,0.90
2019-03-17T06:11:10.850Z,0.80
2019-03-17T06:13:37.385Z,0.90
2019-03-17T06:16:03.937Z,0.60
2019-03-17T06:18:30.461Z,0.97
2019-03-17T06:20:56.892Z,0.90
2019-03-17T06:23:23.325Z,0.90
2019-03-17T06:25:49.862Z,0.80
2019-03-17T06:28:16.295Z,1.00
2019-03-17T06:30:42.727Z,0.93
2019-03-17T06:33:09.145Z,0.80
2019-03-17T06:35:35.635Z,1.00
2019-03-17T06:38:02.237Z,1.17
2019-03-17T06:40:28.714Z,1.00
2019-03-17T06:42:55.201Z,1.00
2019-03-17T06:45:22.258Z,1.10
2019-03-17T06:47:48.686Z,0.77
2019-03-17T06:50:15.217Z,1.13
2019-03-17T06:52:41.655Z,1.20
2019-03-17T06:55:10.410Z,1.20
2019-03-17T06:57:36.875Z,1.27
2019-03-17T07:00:06.163Z,0.87
2019-03-17T07:02:35.784Z,1.07
2019-03-17T07:05:03.037Z,1.03
2019-03-17T07:07:29.572Z,1.20
2019-03-17T07:09:56.124Z,1.13
2019-03-17T07:12:24.490Z,1.37
2019-03-17T07:14:52.973Z,1.20
2019-03-17T07:17:19.813Z,1.33
2019-03-17T07:19:46.245Z,1.53
2019-03-17T07:22:13.087Z,1.17
2019-03-17T07:24:39.733Z,1.40
2019-03-17T07:27:06.174Z,1.10
2019-03-17T07:29:32.798Z,1.30
2019-03-17T07:31:59.334Z,1.20
2019-03-17T07:34:25.972Z,1.13
2019-03-17T07:36:52.611Z,1.00
2019-03-17T07:39:19.147Z,1.30
2019-03-17T07:41:45.683Z,0.90
2019-03-17T07:44:13.375Z,1.13
2019-03-17T07:46:39.984Z,1.30
2019-03-17T07:49:06.621Z,1.30
2019-03-17T07:51:33.056Z,1.10
2019-03-17T07:53:59.538Z,1.23
2019-03-17T07:56:26.127Z,1.57
2019-03-17T07:58:52.815Z,1.33
2019-03-17T08:01:21.352Z,1.30
2019-03-17T08:03:54.840Z,1.30
2019-03-17T08:06:21.487Z,1.33
2019-03-17T08:08:48.333Z,1.10
2019-03-17T08:11:14.867Z,1.20
2019-03-17T08:13:41.401Z,0.80
2019-03-17T08:16:07.938Z,0.90
2019-03-17T08:18:34.684Z,1.00
2019-03-17T08:21:01.216Z,1.20
2019-03-17T08:23:27.754Z,1.03
2019-03-17T08:25:56.540Z,1.30
2019-03-17T08:28:23.078Z,1.47
2019-03-17T08:30:53.306Z,1.40
2019-03-17T08:33:17.992Z,1.70
2019-03-17T08:35:44.530Z,1.23
2019-03-17T08:38:21.204Z,1.40
2019-03-17T08:40:39.545Z,1.10
2019-03-17T08:43:06.081Z,1.70
2019-03-17T08:45:32.616Z,1.10
2019-03-17T08:47:59.155Z,1.10
2019-03-17T08:50:25.695Z,1.20
2019-03-17T08:52:52.226Z,1.13
2019-03-17T08:55:18.895Z,0.93
2019-03-17T08:57:45.404Z,1.00
2019-03-17T09:00:13.745Z,1.20
2019-03-17T09:02:41.646Z,0.90
2019-03-17T09:05:08.488Z,1.30
2019-03-17T09:07:34.932Z,1.23
2019-03-17T09:10:04.438Z,1.20
2019-03-17T09:12:30.869Z,1.13
2019-03-17T09:14:59.639Z,0.93
2019-03-17T09:17:27.312Z,1.13
2019-03-17T09:19:53.950Z,0.70
2019-03-17T09:22:20.487Z,1.00
2019-03-17T09:24:47.021Z,1.20
2019-03-17T09:27:16.623Z,1.40
2019-03-17T09:29:43.087Z,1.30
2019-03-17T09:32:09.600Z,1.30
2019-03-17T09:34:36.444Z,1.20
2019-03-17T09:37:03.392Z,1.40
2019-03-17T09:39:30.027Z,1.00
2019-03-17T09:41:56.568Z,1.40
2019-03-17T09:44:23.874Z,1.50
2019-03-17T09:46:51.478Z,1.30
2019-03-17T09:49:24.710Z,1.57
2019-03-17T09:51:51.522Z,1.50
2019-03-17T09:54:25.938Z,1.60
2019-03-17T09:56:52.578Z,1.43
2019-03-17T09:59:19.430Z,1.63
2019-03-17T10:01:45.962Z,1.60
2019-03-17T10:04:12.494Z,1.63
2019-03-17T10:06:39.030Z,1.47
2019-03-17T10:09:09.776Z,1.50
2019-03-17T10:11:36.298Z,1.70
2019-03-17T10:14:02.919Z,1.30
2019-03-17T10:16:29.785Z,1.73
2019-03-17T10:18:56.314Z,1.90
2019-03-17T10:21:22.747Z,1.80
2019-03-17T10:23:49.384Z,1.50
2019-03-17T10:26:16.945Z,1.70
2019-03-17T10:28:43.586Z,1.30
2019-03-17T10:31:11.820Z,1.57
2019-03-17T10:33:40.652Z,1.40
2019-03-17T10:36:07.182Z,1.30
2019-03-17T10:38:33.824Z,1.50
2019-03-17T10:41:00.358Z,1.60
2019-03-17T10:43:26.792Z,1.50
2019-03-17T10:45:53.326Z,1.67
2019-03-17T10:48:19.761Z,1.80
2019-03-17T10:50:49.800Z,1.77
2019-03-17T10:53:14.779Z,1.90
2019-03-17T10:55:41.622Z,1.20
2019-03-17T10:58:08.056Z,1.20
2019-03-17T11:00:36.332Z,1.60
2019-03-17T11:03:03.072Z,1.20
2019-03-17T11:05:29.539Z,1.30
2019-03-17T11:07:56.043Z,1.47
2019-03-17T11:10:34.894Z,1.60
2019-03-17T11:13:01.504Z,1.37
2019-03-17T11:15:28.040Z,1.43
2019-03-17T11:17:54.950Z,1.60
2019-03-17T11:20:21.440Z,1.87
2019-03-17T11:22:47.855Z,1.53
2019-03-17T11:25:28.647Z,1.47
2019-03-17T11:27:55.876Z,1.63
2019-03-17T11:30:22.320Z,1.60
2019-03-17T11:32:51.303Z,1.60
2019-03-17T11:35:17.841Z,1.60
2019-03-17T11:37:45.300Z,1.17
2019-03-17T11:40:18.576Z,1.40
2019-03-17T11:42:49.740Z,1.60
2019-03-17T11:45:16.277Z,1.73
2019-03-17T11:47:43.221Z,1.60
2019-03-17T11:50:16.819Z,1.63
2019-03-17T11:52:43.456Z,1.50
2019-03-17T11:55:10.635Z,1.43
2019-03-17T11:57:37.346Z,1.70
2019-03-17T12:00:12.918Z,1.93
2019-03-17T12:02:39.429Z,1.40
2019-03-17T12:05:07.096Z,1.53
2019-03-17T12:07:35.368Z,1.73
2019-03-17T12:10:02.727Z,1.87
2019-03-17T12:12:31.055Z,1.30
2019-03-17T12:14:57.743Z,1.40
2019-03-17T12:17:24.290Z,1.53
2019-03-17T12:19:50.815Z,1.33
2019-03-17T12:22:17.249Z,1.90
2019-03-17T12:24:43.782Z,1.30
2019-03-17T12:27:10.421Z,1.83
2019-03-17T12:29:36.854Z,1.77
2019-03-17T12:32:03.698Z,1.80
2019-03-17T12:34:30.234Z,1.37
2019-03-17T12:36:56.669Z,1.60
2019-03-17T12:39:23.311Z,1.63
2019-03-17T12:41:49.846Z,1.30
2019-03-17T12:44:16.279Z,1.60
2019-03-17T12:46:42.810Z,2.17
2019-03-17T12:49:09.234Z,1.80
2019-03-17T12:51:35.683Z,1.73
2019-03-17T12:54:02.118Z,1.70
2019-03-17T12:56:28.649Z,1.60
2019-03-17T12:58:55.184Z,1.83
2019-03-17T13:01:21.719Z,1.70
2019-03-17T13:03:55.409Z,2.30
2019-03-17T13:06:22.061Z,2.43
2019-03-17T13:08:49.877Z,2.17
2019-03-17T13:11:16.875Z,1.80
2019-03-17T13:13:43.309Z,2.10
2019-03-17T13:16:15.477Z,2.10
2019-03-17T13:18:42.347Z,2.20
2019-03-17T13:21:09.060Z,1.90
2019-03-17T13:23:35.799Z,2.57
2019-03-17T13:26:02.643Z,1.83
2019-03-17T13:28:29.076Z,1.93
2019-03-17T13:30:55.515Z,1.73
2019-03-17T13:33:22.051Z,2.10
2019-03-17T13:35:48.588Z,2.40
2019-03-17T13:38:15.223Z,2.63
2019-03-17T13:40:42.073Z,2.60
2019-03-17T13:43:08.653Z,2.40
2019-03-17T13:45:35.240Z,2.53
2019-03-17T13:48:01.774Z,2.47
2019-03-17T13:50:28.207Z,2.50
2019-03-17T13:52:54.747Z,2.93
2019-03-17T13:55:21.281Z,2.37
2019-03-17T13:57:53.861Z,2.13
2019-03-17T14:00:20.503Z,2.27
2019-03-17T14:02:47.032Z,1.70
2019-03-17T14:05:13.773Z,2.07
2019-03-17T14:07:40.421Z,1.77
2019-03-17T14:10:16.887Z,2.33
2019-03-17T14:12:43.795Z,1.80
2019-03-17T14:15:14.563Z,1.80
2019-03-17T14:17:41.104Z,1.90
2019-03-17T14:20:13.173Z,2.57
2019-03-17T14:22:41.438Z,2.27
2019-03-17T14:25:22.724Z,2.30
2019-03-17T14:27:49.143Z,1.90
2019-03-17T14:30:16.170Z,1.60
2019-03-17T14:32:45.052Z,1.10
2019-03-17T14:35:21.346Z,0.90
2019-03-17T14:37:46.769Z,0.97
2019-03-17T14:40:14.632Z,0.60
2019-03-17T14:42:41.230Z,0.60
2019-03-17T14:45:10.854Z,0.43
2019-03-17T14:47:37.278Z,0.60
2019-03-17T14:50:07.153Z,0.40
2019-03-17T14:52:33.767Z,0.40
2019-03-17T14:55:00.348Z,0.50
2019-03-17T14:57:33.262Z,0.40
2019-03-17T14:59:59.722Z,0.30
2019-03-17T15:02:26.147Z,0.30
2019-03-17T15:04:52.807Z,0.40
2019-03-17T15:07:19.330Z,0.20
2019-03-17T15:09:45.870Z,0.53
2019-03-17T15:12:12.400Z,0.23
2019-03-17T15:14:38.937Z,0.20
2019-03-17T15:17:05.473Z,0.50
2019-03-17T15:19:32.008Z,0.33
2019-03-17T15:21:58.547Z,0.33
2019-03-17T15:24:25.081Z,0.20
2019-03-17T15:26:51.616Z,0.27
2019-03-17T15:29:18.153Z,0.17
2019-03-17T15:31:44.586Z,0.20
2019-03-17T15:34:11.124Z,0.20
2019-03-17T15:36:37.576Z,0.30
2019-03-17T15:39:05.138Z,0.20
2019-03-17T15:41:31.662Z,0.10
2019-03-17T15:43:58.124Z,0.10
2019-03-17T15:46:24.723Z,0.10
2019-03-17T15:48:51.260Z,0.20
2019-03-17T15:51:20.615Z,0.10
2019-03-17T15:53:46.174Z,0.20
2019-03-17T15:56:12.646Z,0.10
2019-03-17T15:58:39.143Z,0.20
2019-03-17T16:01:05.686Z,0.20
2019-03-17T16:03:32.161Z,0.70
2019-03-17T16:05:58.858Z,0.20
2019-03-17T16:08:25.491Z,0.20
2019-03-17T16:10:54.198Z,0.20
2019-03-17T16:13:22.562Z,0.20
2019-03-17T16:15:49.316Z,0.23
2019-03-17T16:18:15.838Z,0.30
2019-03-17T16:20:42.267Z,0.20
2019-03-17T16:23:08.702Z,0.30
2019-03-17T16:25:37.292Z,0.30
2019-03-17T16:28:03.722Z,0.20
2019-03-17T16:30:32.512Z,0.20
2019-03-17T16:32:59.150Z,0.30
2019-03-17T16:35:25.746Z,0.30
2019-03-17T16:37:52.689Z,0.50
2019-03-17T16:40:26.363Z,0.87
2019-03-17T16:42:54.037Z,0.87
2019-03-17T16:45:21.250Z,1.27
2019-03-17T16:47:47.885Z,0.73
2019-03-17T16:50:16.985Z,0.53
2019-03-17T16:52:43.528Z,0.57
2019-03-17T16:55:11.528Z,0.20
2019-03-17T16:57:38.229Z,0.40
2019-03-17T17:00:19.200Z,0.50
2019-03-17T17:02:46.764Z,1.13
2019-03-17T17:05:15.043Z,0.70
2019-03-17T17:07:41.680Z,0.50
2019-03-17T17:10:11.014Z,0.70
2019-03-17T17:12:37.516Z,0.93
2019-03-17T17:15:10.222Z,0.97
2019-03-17T17:17:36.731Z,0.70
2019-03-17T17:20:09.891Z,0.70
2019-03-17T17:22:36.356Z,0.60
2019-03-17T17:25:05.014Z,0.80
2019-03-17T17:27:31.477Z,1.10
2019-03-17T17:29:58.012Z,0.93
2019-03-17T17:32:24.445Z,1.00
2019-03-17T17:34:50.982Z,1.67
2019-03-17T17:37:17.416Z,1.20
2019-03-17T17:39:44.053Z,1.60
2019-03-17T17:42:10.607Z,1.20
2019-03-17T17:44:37.234Z,1.07
2019-03-17T17:47:04.091Z,1.20
2019-03-17T17:49:30.892Z,1.03
2019-03-17T17:51:57.348Z,1.50
2019-03-17T17:54:23.782Z,1.27
2019-03-17T17:56:50.215Z,0.90
2019-03-17T17:59:16.648Z,0.97
2019-03-17T18:01:43.086Z,0.77
2019-03-17T18:04:09.516Z,0.90
2019-03-17T18:06:36.154Z,1.00
2019-03-17T18:09:04.739Z,0.80
2019-03-17T18:11:31.172Z,1.50
2019-03-17T18:13:58.015Z,1.00
2019-03-17T18:16:24.552Z,0.90
2019-03-17T18:18:50.985Z,1.30
2019-03-17T18:21:17.420Z,1.20
2019-03-17T18:23:44.163Z,1.20
2019-03-17T18:26:10.697Z,1.40
2019-03-17T18:28:37.130Z,1.23
2019-03-17T18:31:03.564Z,1.40
2019-03-17T18:33:29.998Z,1.13
2019-03-17T18:35:56.536Z,1.37
2019-03-17T18:38:24.820Z,1.23
2019-03-17T18:40:51.349Z,1.10
2019-03-17T18:43:17.899Z,0.97
2019-03-17T18:45:44.527Z,1.00
2019-03-17T18:48:10.957Z,1.10
2019-03-17T18:50:37.387Z,1.10
2019-03-17T18:53:03.814Z,1.00
2019-03-17T18:55:30.358Z,1.10
2019-03-17T18:57:56.893Z,1.03
2019-03-17T19:00:24.359Z,1.17
2019-03-17T19:02:50.785Z,0.97
2019-03-17T19:05:19.900Z,0.90
2019-03-17T19:07:46.111Z,0.90
2019-03-17T19:10:14.274Z,0.80
2019-03-17T19:12:45.532Z,1.20
2019-03-17T19:15:18.646Z,2.50
2019-03-17T19:17:45.464Z,4.23
2019-03-17T19:20:18.500Z,1.30
2019-03-17T19:22:47.032Z,0.90
2019-03-17T19:25:19.262Z,7.27
2019-03-17T19:27:46.049Z,2.17
2019-03-17T19:30:25.609Z,1.17
2019-03-17T19:32:53.044Z,0.70
2019-03-17T19:35:22.468Z,1.10
2019-03-17T19:37:50.954Z,0.90
2019-03-17T19:40:23.810Z,0.70
2019-03-17T19:42:58.567Z,0.80
2019-03-17T19:45:18.830Z,0.80
2019-03-17T19:48:06.865Z,0.60
2019-03-17T19:50:35.561Z,0.90
2019-03-17T19:53:05.072Z,0.80
2019-03-17T19:55:53.838Z,0.77
2019-03-17T19:58:23.635Z,0.97
2019-03-17T20:00:52.523Z,1.20
2019-03-17T20:03:21.334Z,1.27
2019-03-17T20:06:01.808Z,1.30
2019-03-17T20:08:21.891Z,1.07
2019-03-17T20:10:51.674Z,1.30
2019-03-17T20:13:20.095Z,1.57
2019-03-17T20:15:46.702Z,1.43
2019-03-17T20:18:13.327Z,1.60
2019-03-17T20:20:40.299Z,1.70
2019-03-17T20:23:12.763Z,1.70
2019-03-17T20:25:41.335Z,1.93
2019-03-17T20:28:08.196Z,1.93
2019-03-17T20:30:37.621Z,1.70
2019-03-17T20:33:04.117Z,1.77
2019-03-17T20:35:36.652Z,1.53
2019-03-17T20:38:03.784Z,1.23
2019-03-17T20:40:30.667Z,1.70
2019-03-17T20:42:57.349Z,2.27
2019-03-17T20:45:23.892Z,2.23
2019-03-17T20:47:50.396Z,2.70
2019-03-17T20:50:17.862Z,2.23
2019-03-17T20:52:44.390Z,2.30
2019-03-17T20:55:11.446Z,2.03
2019-03-17T20:57:41.788Z,1.87
2019-03-17T21:00:13.623Z,2.27
2019-03-17T21:02:41.173Z,2.33
2019-03-17T21:05:09.566Z,1.97
2019-03-17T21:07:36.302Z,1.67
2019-03-17T21:10:07.761Z,1.80
2019-03-17T21:12:38.287Z,1.70
2019-03-17T21:15:07.852Z,2.70
2019-03-17T21:17:34.277Z,1.70
2019-03-17T21:20:00.761Z,1.60
2019-03-17T21:22:27.297Z,1.97
2019-03-17T21:24:53.835Z,2.00
2019-03-17T21:27:20.375Z,1.87
2019-03-17T21:29:46.813Z,1.87
2019-03-17T21:32:13.232Z,1.50
2019-03-17T21:34:39.776Z,1.43
2019-03-17T21:37:06.409Z,1.60
2019-03-17T21:39:32.943Z,1.83
2019-03-17T21:41:59.480Z,1.43
2019-03-17T21:44:26.016Z,1.50
2019-03-17T21:46:52.450Z,1.47
2019-03-17T21:49:18.986Z,1.60
2019-03-17T21:51:45.725Z,1.50
2019-03-17T21:54:12.363Z,1.60
2019-03-17T21:56:39.011Z,1.80
2019-03-17T21:59:05.538Z,1.10
2019-03-17T22:01:32.076Z,1.20
2019-03-17T22:03:58.510Z,1.70
2019-03-17T22:06:25.043Z,1.30
2019-03-17T22:08:51.521Z,1.03
2019-03-17T22:11:18.321Z,1.30
2019-03-17T22:13:44.861Z,1.10
2019-03-17T22:16:11.395Z,1.20
2019-03-17T22:18:38.450Z,1.20
2019-03-17T22:21:04.992Z,1.10
2019-03-17T22:23:31.417Z,1.47
2019-03-17T22:25:57.949Z,1.40
2019-03-17T22:28:24.381Z,1.90
2019-03-17T22:30:52.658Z,1.87
2019-03-17T22:33:19.089Z,1.40
2019-03-17T22:35:45.627Z,1.90
2019-03-17T22:38:12.161Z,1.67
2019-03-17T22:40:38.701Z,1.90
2019-03-17T22:43:05.130Z,1.53
2019-03-17T22:45:31.670Z,1.70
2019-03-17T22:47:58.104Z,1.77
2019-03-17T22:50:24.637Z,1.60
2019-03-17T22:52:51.074Z,1.27
2019-03-17T22:55:17.610Z,1.73
2019-03-17T22:57:44.148Z,1.73
2019-03-17T23:00:18.258Z,2.10
2019-03-17T23:02:44.794Z,2.03
2019-03-17T23:05:12.256Z,1.50
2019-03-17T23:07:39.212Z,1.53
2019-03-17T23:10:08.627Z,1.83
2019-03-17T23:12:35.440Z,1.30
2019-03-17T23:15:01.977Z,2.13
2019-03-17T23:17:28.410Z,2.60
2019-03-17T23:19:54.843Z,2.20
2019-03-17T23:22:21.276Z,1.60
2019-03-17T23:24:48.531Z,1.83
2019-03-17T23:27:15.065Z,1.77
2019-03-17T23:29:41.602Z,2.10
2019-03-17T23:32:08.036Z,3.07
2019-03-17T23:34:34.570Z,2.60
2019-03-17T23:37:01.005Z,2.23
2019-03-17T23:39:27.541Z,2.40
2019-03-17T23:41:53.977Z,2.83
2019-03-17T23:44:20.408Z,2.83
2019-03-17T23:46:46.945Z,2.77
2019-03-17T23:49:13.365Z,3.27
2019-03-17T23:51:39.813Z,3.07
2019-03-17T23:54:06.245Z,2.27
2019-03-17T23:56:32.837Z,2.30
2019-03-17T23:58:59.521Z,2.30
